Justine — WDF6361 — position and weather

sailwx.info

Track history (hours):
 
Tides and Currents Weather Stations Pressure Air Temp Water Temp Dewpoint Dewpoint Depression Visibility Wind Speed Wind Dir Waves Ship Positions

Justine

Owner: Dagon Marine, LLC, Jersey City, NJ. More information available from US FCC via Universal Licensing System and Coast Guard Vessel Documentation Center.

Last reported at 2017-Oct-17 18:16 UTC. Time now 2017-Oct-20 08:43 UTC.
Position N 40°46' W 074°01'.

Length 30 m; draft 3 m.

Type: Pleasure craft. MMSI: 368564000.

Date/timePositionNaut miles runAvg speedWind from/ knotsBaromVisibWave heightAir tempDewpointWater temp
2017-Oct-17 18:16N 40°46' W 074°01'0 1.1
2017-Oct-17 18:00N 40°45' W 074°01'3 6.3
2017-Oct-17 17:30N 40°43' W 073°58'3 5.0
2017-Oct-17 16:54N 40°46' W 073°57'3 6.8
2017-Oct-17 16:30N 40°43' W 073°58'3 5.3
2017-Oct-17 16:00N 40°41' W 074°01'2 3.0
2017-Oct-17 15:30N 40°41' W 074°03'4 7.4
2017-Oct-17 15:00N 40°45' W 074°01'1 1.6
2017-Oct-17 14:29N 40°46' W 074°01'0 0.0
2017-Oct-17 13:59N 40°46' W 074°01'  
2017-Oct-14 19:10N 40°46' W 074°01'1 4.3
2017-Oct-14 19:00N 40°46' W 074°00'1 1.1
2017-Oct-14 18:30N 40°45' W 074°01'3 6.1
2017-Oct-14 18:00N 40°43' W 073°59'3 3.2
2017-Oct-14 17:04N 40°45' W 073°57'1 9.1
2017-Oct-14 17:00N 40°45' W 073°58'4 8.5
2017-Oct-14 16:30N 40°41' W 074°01'2 3.6
2017-Oct-14 16:00N 40°43' W 074°02'3 6.1
2017-Oct-14 15:28N 40°46' W 074°00'0 0.0
2017-Oct-14 14:58N 40°46' W 074°00'1 0.1
2017-Oct-14 01:58N 40°46' W 074°01'0 0.0
2017-Oct-14 01:28N 40°46' W 074°01'0 0.0
2017-Oct-14 00:58N 40°46' W 074°01'0 0.0
2017-Oct-14 00:28N 40°46' W 074°01'1 1.4
2017-Oct-14 00:00N 40°45' W 074°01'3 6.2
2017-Oct-13 23:28N 40°42' W 074°00'1 2.6
2017-Oct-13 23:00N 40°42' W 073°59'3 6.0
2017-Oct-13 22:29N 40°41' W 074°03'5 9.4
2017-Oct-13 21:59N 40°46' W 074°00'0 0.5
2017-Oct-13 21:28N 40°46' W 074°00'0 0.0
2017-Oct-13 20:58N 40°46' W 074°00'0 0.9
2017-Oct-13 20:29N 40°46' W 074°01'  
2017-Oct-11 00:00N 40°43' W 074°01'2 4.6
2017-Oct-10 23:30N 40°44' W 073°58'1 1.6
2017-Oct-10 23:00N 40°45' W 073°58'4 7.8
2017-Oct-10 22:30N 40°42' W 074°01'2 3.2
2017-Oct-10 22:00N 40°43' W 074°01'2 0.7
2017-Oct-10 18:45N 40°46' W 074°01'1 2.2
2017-Oct-10 18:22N 40°46' W 074°00'2 5.8
2017-Oct-10 18:00N 40°44' W 074°01'3 5.5
2017-Oct-10 17:30N 40°41' W 074°03'4 7.1
2017-Oct-10 17:00N 40°45' W 074°01'1 2.4
2017-Oct-10 16:29N 40°46' W 074°00'0 0.0
2017-Oct-10 15:59N 40°46' W 074°00'1 1.5
2017-Oct-10 15:30N 40°45' W 074°01'  
Track history (hours):
 
Tides and Currents Weather Stations Pressure Air Temp Water Temp Dewpoint Dewpoint Depression Visibility Wind Speed Wind Dir Waves Ship Positions

Justine

Owner: Dagon Marine, LLC, Jersey City, NJ. More information available from US FCC via Universal Licensing System and Coast Guard Vessel Documentation Center.

Last reported at 2017-Oct-17 18:16 UTC. Time now 2017-Oct-20 08:43 UTC.
Position N 40°46' W 074°01'.

Length 30 m; draft 3 m.

Type: Pleasure craft. MMSI: 368564000.

Date/timePositionNaut miles runAvg speedWind from/ knotsBaromVisibWave heightAir tempDewpointWater temp
2017-Oct-17 18:16N 40°46' W 074°01'0 1.1
2017-Oct-17 18:00N 40°45' W 074°01'3 6.3
2017-Oct-17 17:30N 40°43' W 073°58'3 5.0
2017-Oct-17 16:54N 40°46' W 073°57'3 6.8
2017-Oct-17 16:30N 40°43' W 073°58'3 5.3
2017-Oct-17 16:00N 40°41' W 074°01'2 3.0
2017-Oct-17 15:30N 40°41' W 074°03'4 7.4
2017-Oct-17 15:00N 40°45' W 074°01'1 1.6
2017-Oct-17 14:29N 40°46' W 074°01'0 0.0
2017-Oct-17 13:59N 40°46' W 074°01'  
2017-Oct-14 19:10N 40°46' W 074°01'1 4.3
2017-Oct-14 19:00N 40°46' W 074°00'1 1.1
2017-Oct-14 18:30N 40°45' W 074°01'3 6.1
2017-Oct-14 18:00N 40°43' W 073°59'3 3.2
2017-Oct-14 17:04N 40°45' W 073°57'1 9.1
2017-Oct-14 17:00N 40°45' W 073°58'4 8.5
2017-Oct-14 16:30N 40°41' W 074°01'2 3.6
2017-Oct-14 16:00N 40°43' W 074°02'3 6.1
2017-Oct-14 15:28N 40°46' W 074°00'0 0.0
2017-Oct-14 14:58N 40°46' W 074°00'1 0.1
2017-Oct-14 01:58N 40°46' W 074°01'0 0.0
2017-Oct-14 01:28N 40°46' W 074°01'0 0.0
2017-Oct-14 00:58N 40°46' W 074°01'0 0.0
2017-Oct-14 00:28N 40°46' W 074°01'1 1.4
2017-Oct-14 00:00N 40°45' W 074°01'3 6.2
2017-Oct-13 23:28N 40°42' W 074°00'1 2.6
2017-Oct-13 23:00N 40°42' W 073°59'3 6.0
2017-Oct-13 22:29N 40°41' W 074°03'5 9.4
2017-Oct-13 21:59N 40°46' W 074°00'0 0.5
2017-Oct-13 21:28N 40°46' W 074°00'0 0.0
2017-Oct-13 20:58N 40°46' W 074°00'0 0.9
2017-Oct-13 20:29N 40°46' W 074°01'  
2017-Oct-11 00:00N 40°43' W 074°01'2 4.6
2017-Oct-10 23:30N 40°44' W 073°58'1 1.6
2017-Oct-10 23:00N 40°45' W 073°58'4 7.8
2017-Oct-10 22:30N 40°42' W 074°01'2 3.2
2017-Oct-10 22:00N 40°43' W 074°01'2 0.7
2017-Oct-10 18:45N 40°46' W 074°01'1 2.2
2017-Oct-10 18:22N 40°46' W 074°00'2 5.8
2017-Oct-10 18:00N 40°44' W 074°01'3 5.5
2017-Oct-10 17:30N 40°41' W 074°03'4 7.1
2017-Oct-10 17:00N 40°45' W 074°01'1 2.4
2017-Oct-10 16:29N 40°46' W 074°00'0 0.0
2017-Oct-10 15:59N 40°46' W 074°00'1 1.5
2017-Oct-10 15:30N 40°45' W 074°01'  

Dump ship's entire track history